sensor_id;sensor_type;location;lat;lon;timestamp;P1;durP1;ratioP1;P2;durP2;ratioP2
62990;SDS011;49084;48.204;16.202;2022-11-02T00:00:30;26.00;;;16.17;;
62990;SDS011;49084;48.204;16.202;2022-11-02T00:02:57;27.15;;;16.48;;
62990;SDS011;49084;48.204;16.202;2022-11-02T00:05:23;29.65;;;17.27;;
62990;SDS011;49084;48.204;16.202;2022-11-02T00:07:49;27.08;;;16.65;;
62990;SDS011;49084;48.204;16.202;2022-11-02T00:10:19;25.40;;;16.20;;
62990;SDS011;49084;48.204;16.202;2022-11-02T00:12:47;27.70;;;16.63;;
62990;SDS011;49084;48.204;16.202;2022-11-02T00:15:13;31.55;;;15.70;;
62990;SDS011;49084;48.204;16.202;2022-11-02T00:17:43;25.23;;;15.98;;
62990;SDS011;49084;48.204;16.202;2022-11-02T00:20:15;23.63;;;15.45;;
62990;SDS011;49084;48.204;16.202;2022-11-02T00:22:43;25.75;;;16.30;;
62990;SDS011;49084;48.204;16.202;2022-11-02T00:25:12;26.92;;;15.73;;
62990;SDS011;49084;48.204;16.202;2022-11-02T00:27:39;25.80;;;16.08;;
62990;SDS011;49084;48.204;16.202;2022-11-02T00:30:06;25.45;;;15.73;;
62990;SDS011;49084;48.204;16.202;2022-11-02T00:32:33;23.52;;;14.63;;
62990;SDS011;49084;48.204;16.202;2022-11-02T00:34:58;26.63;;;14.43;;
62990;SDS011;49084;48.204;16.202;2022-11-02T00:37:24;22.42;;;14.68;;
62990;SDS011;49084;48.204;16.202;2022-11-02T00:39:50;31.13;;;15.98;;
62990;SDS011;49084;48.204;16.202;2022-11-02T00:42:15;23.73;;;14.50;;
62990;SDS011;49084;48.204;16.202;2022-11-02T00:44:41;24.63;;;14.82;;
62990;SDS011;49084;48.204;16.202;2022-11-02T00:47:07;23.48;;;13.88;;
62990;SDS011;49084;48.204;16.202;2022-11-02T00:49:32;25.10;;;15.52;;
62990;SDS011;49084;48.204;16.202;2022-11-02T00:51:58;25.02;;;15.38;;
62990;SDS011;49084;48.204;16.202;2022-11-02T00:54:24;28.27;;;16.15;;
62990;SDS011;49084;48.204;16.202;2022-11-02T00:56:49;26.98;;;14.60;;
62990;SDS011;49084;48.204;16.202;2022-11-02T00:59:15;24.58;;;13.90;;
62990;SDS011;49084;48.204;16.202;2022-11-02T01:01:40;21.52;;;14.20;;
62990;SDS011;49084;48.204;16.202;2022-11-02T01:04:11;22.13;;;13.32;;
62990;SDS011;49084;48.204;16.202;2022-11-02T01:06:38;25.98;;;14.25;;
62990;SDS011;49084;48.204;16.202;2022-11-02T01:09:04;32.17;;;13.60;;
62990;SDS011;49084;48.204;16.202;2022-11-02T01:11:30;22.10;;;12.13;;
62990;SDS011;49084;48.204;16.202;2022-11-02T01:13:55;24.35;;;13.15;;
62990;SDS011;49084;48.204;16.202;2022-11-02T01:16:21;31.80;;;13.65;;
62990;SDS011;49084;48.204;16.202;2022-11-02T01:18:50;21.10;;;12.73;;
62990;SDS011;49084;48.204;16.202;2022-11-02T01:21:19;29.90;;;14.82;;
62990;SDS011;49084;48.204;16.202;2022-11-02T01:23:45;26.23;;;14.07;;
62990;SDS011;49084;48.204;16.202;2022-11-02T01:26:11;24.38;;;14.35;;
62990;SDS011;49084;48.204;16.202;2022-11-02T01:28:37;27.73;;;14.45;;
62990;SDS011;49084;48.204;16.202;2022-11-02T01:31:03;26.52;;;15.18;;
62990;SDS011;49084;48.204;16.202;2022-11-02T01:33:30;28.85;;;15.50;;
62990;SDS011;49084;48.204;16.202;2022-11-02T01:35:56;25.83;;;15.38;;
62990;SDS011;49084;48.204;16.202;2022-11-02T01:38:23;25.30;;;14.82;;
62990;SDS011;49084;48.204;16.202;2022-11-02T01:40:49;26.60;;;14.18;;
62990;SDS011;49084;48.204;16.202;2022-11-02T01:43:25;23.80;;;13.90;;
62990;SDS011;49084;48.204;16.202;2022-11-02T01:46:04;25.88;;;14.68;;
62990;SDS011;49084;48.204;16.202;2022-11-02T01:48:34;23.42;;;15.00;;
62990;SDS011;49084;48.204;16.202;2022-11-02T01:51:11;22.17;;;15.10;;
62990;SDS011;49084;48.204;16.202;2022-11-02T01:53:43;26.15;;;14.18;;
62990;SDS011;49084;48.204;16.202;2022-11-02T01:56:11;23.48;;;13.55;;
62990;SDS011;49084;48.204;16.202;2022-11-02T01:58:42;24.20;;;14.68;;
62990;SDS011;49084;48.204;16.202;2022-11-02T02:03:37;22.67;;;13.98;;
62990;SDS011;49084;48.204;16.202;2022-11-02T02:06:13;23.70;;;13.93;;
62990;SDS011;49084;48.204;16.202;2022-11-02T02:08:44;25.25;;;13.70;;
62990;SDS011;49084;48.204;16.202;2022-11-02T02:11:28;20.83;;;12.68;;
62990;SDS011;49084;48.204;16.202;2022-11-02T02:14:03;22.42;;;13.88;;
62990;SDS011;49084;48.204;16.202;2022-11-02T02:16:38;22.55;;;13.55;;
62990;SDS011;49084;48.204;16.202;2022-11-02T02:19:30;26.00;;;15.43;;
62990;SDS011;49084;48.204;16.202;2022-11-02T02:31:30;27.27;;;12.88;;
62990;SDS011;49084;48.204;16.202;2022-11-02T02:33:39;24.17;;;13.27;;
62990;SDS011;49084;48.204;16.202;2022-11-02T02:36:38;22.27;;;12.82;;
62990;SDS011;49084;48.204;16.202;2022-11-02T02:39:20;23.08;;;13.38;;
62990;SDS011;49084;48.204;16.202;2022-11-02T02:44:41;20.05;;;12.85;;
62990;SDS011;49084;48.204;16.202;2022-11-02T02:47:15;24.42;;;13.57;;
62990;SDS011;49084;48.204;16.202;2022-11-02T02:49:52;24.25;;;13.05;;
62990;SDS011;49084;48.204;16.202;2022-11-02T02:52:23;19.85;;;12.23;;
62990;SDS011;49084;48.204;16.202;2022-11-02T02:54:51;23.27;;;12.60;;
62990;SDS011;49084;48.204;16.202;2022-11-02T02:57:22;22.55;;;12.15;;
62990;SDS011;49084;48.204;16.202;2022-11-02T02:59:51;24.13;;;12.73;;
62990;SDS011;49084;48.204;16.202;2022-11-02T03:02:19;23.30;;;13.23;;
62990;SDS011;49084;48.204;16.202;2022-11-02T03:04:48;22.52;;;13.18;;
62990;SDS011;49084;48.204;16.202;2022-11-02T03:07:18;21.73;;;12.02;;
62990;SDS011;49084;48.204;16.202;2022-11-02T03:09:50;24.90;;;12.88;;
62990;SDS011;49084;48.204;16.202;2022-11-02T03:23:23;19.30;;;10.80;;
62990;SDS011;49084;48.204;16.202;2022-11-02T03:31:12;16.85;;;11.10;;
62990;SDS011;49084;48.204;16.202;2022-11-02T03:39:53;16.50;;;10.70;;
62990;SDS011;49084;48.204;16.202;2022-11-02T03:42:30;25.40;;;10.60;;
62990;SDS011;49084;48.204;16.202;2022-11-02T03:45:00;19.35;;;10.02;;
62990;SDS011;49084;48.204;16.202;2022-11-02T03:47:31;17.08;;;10.25;;
62990;SDS011;49084;48.204;16.202;2022-11-02T03:49:59;20.50;;;11.32;;
62990;SDS011;49084;48.204;16.202;2022-11-02T03:52:27;23.15;;;13.02;;
62990;SDS011;49084;48.204;16.202;2022-11-02T03:57:45;17.63;;;10.48;;
62990;SDS011;49084;48.204;16.202;2022-11-02T04:00:13;17.15;;;10.32;;
62990;SDS011;49084;48.204;16.202;2022-11-02T04:02:43;21.50;;;11.82;;
62990;SDS011;49084;48.204;16.202;2022-11-02T04:05:12;20.80;;;12.07;;
62990;SDS011;49084;48.204;16.202;2022-11-02T04:07:39;22.30;;;13.68;;
62990;SDS011;49084;48.204;16.202;2022-11-02T04:10:26;25.63;;;12.70;;
62990;SDS011;49084;48.204;16.202;2022-11-02T04:12:51;21.23;;;13.18;;
62990;SDS011;49084;48.204;16.202;2022-11-02T04:15:36;22.25;;;12.75;;
62990;SDS011;49084;48.204;16.202;2022-11-02T04:18:01;20.27;;;12.18;;
62990;SDS011;49084;48.204;16.202;2022-11-02T04:20:49;22.10;;;11.70;;
62990;SDS011;49084;48.204;16.202;2022-11-02T04:23:16;21.60;;;12.48;;
62990;SDS011;49084;48.204;16.202;2022-11-02T04:26:01;21.38;;;11.25;;
62990;SDS011;49084;48.204;16.202;2022-11-02T04:28:26;19.63;;;11.88;;
62990;SDS011;49084;48.204;16.202;2022-11-02T04:30:52;16.52;;;10.75;;
62990;SDS011;49084;48.204;16.202;2022-11-02T04:33:18;22.42;;;10.95;;
62990;SDS011;49084;48.204;16.202;2022-11-02T04:35:59;17.08;;;11.20;;
62990;SDS011;49084;48.204;16.202;2022-11-02T04:38:25;28.75;;;12.27;;
62990;SDS011;49084;48.204;16.202;2022-11-02T04:41:13;17.20;;;10.63;;
62990;SDS011;49084;48.204;16.202;2022-11-02T04:44:01;17.75;;;10.05;;
62990;SDS011;49084;48.204;16.202;2022-11-02T04:46:27;15.52;;;10.30;;
62990;SDS011;49084;48.204;16.202;2022-11-02T04:48:54;22.05;;;11.48;;
62990;SDS011;49084;48.204;16.202;2022-11-02T04:51:21;20.65;;;11.98;;
62990;SDS011;49084;48.204;16.202;2022-11-02T04:53:48;20.45;;;10.77;;
62990;SDS011;49084;48.204;16.202;2022-11-02T04:56:15;19.50;;;10.88;;
62990;SDS011;49084;48.204;16.202;2022-11-02T04:58:41;17.92;;;11.00;;
62990;SDS011;49084;48.204;16.202;2022-11-02T05:01:15;15.63;;;10.57;;
62990;SDS011;49084;48.204;16.202;2022-11-02T05:03:45;17.48;;;10.02;;
62990;SDS011;49084;48.204;16.202;2022-11-02T05:06:12;22.30;;;11.68;;
62990;SDS011;49084;48.204;16.202;2022-11-02T05:08:38;22.02;;;10.85;;
62990;SDS011;49084;48.204;16.202;2022-11-02T05:11:04;22.02;;;11.27;;
62990;SDS011;49084;48.204;16.202;2022-11-02T05:13:30;18.60;;;12.05;;
62990;SDS011;49084;48.204;16.202;2022-11-02T05:15:57;19.55;;;10.80;;
62990;SDS011;49084;48.204;16.202;2022-11-02T05:18:23;26.15;;;11.50;;
62990;SDS011;49084;48.204;16.202;2022-11-02T05:20:50;20.83;;;10.77;;
62990;SDS011;49084;48.204;16.202;2022-11-02T05:23:17;20.60;;;11.10;;
62990;SDS011;49084;48.204;16.202;2022-11-02T05:25:50;27.98;;;11.13;;
62990;SDS011;49084;48.204;16.202;2022-11-02T05:28:27;20.40;;;10.65;;
62990;SDS011;49084;48.204;16.202;2022-11-02T05:30:56;24.55;;;11.77;;
62990;SDS011;49084;48.204;16.202;2022-11-02T05:33:24;20.58;;;12.15;;
62990;SDS011;49084;48.204;16.202;2022-11-02T05:35:51;18.27;;;10.07;;
62990;SDS011;49084;48.204;16.202;2022-11-02T05:38:19;22.13;;;11.20;;
62990;SDS011;49084;48.204;16.202;2022-11-02T05:40:50;17.08;;;10.05;;
62990;SDS011;49084;48.204;16.202;2022-11-02T05:43:16;20.23;;;10.77;;
62990;SDS011;49084;48.204;16.202;2022-11-02T05:45:42;18.48;;;10.82;;
62990;SDS011;49084;48.204;16.202;2022-11-02T05:48:07;17.80;;;11.07;;
62990;SDS011;49084;48.204;16.202;2022-11-02T05:50:33;18.40;;;10.52;;
62990;SDS011;49084;48.204;16.202;2022-11-02T05:52:59;21.67;;;10.88;;
62990;SDS011;49084;48.204;16.202;2022-11-02T05:55:25;19.90;;;9.93;;
62990;SDS011;49084;48.204;16.202;2022-11-02T05:57:51;18.90;;;10.13;;
62990;SDS011;49084;48.204;16.202;2022-11-02T06:00:17;17.90;;;10.15;;
62990;SDS011;49084;48.204;16.202;2022-11-02T06:02:44;17.60;;;9.95;;
62990;SDS011;49084;48.204;16.202;2022-11-02T06:05:10;24.38;;;10.95;;
62990;SDS011;49084;48.204;16.202;2022-11-02T06:07:35;26.60;;;13.30;;
62990;SDS011;49084;48.204;16.202;2022-11-02T06:10:01;25.70;;;11.82;;
62990;SDS011;49084;48.204;16.202;2022-11-02T06:12:27;20.48;;;10.80;;
62990;SDS011;49084;48.204;16.202;2022-11-02T06:14:53;25.27;;;11.48;;
62990;SDS011;49084;48.204;16.202;2022-11-02T06:17:18;22.42;;;12.15;;
62990;SDS011;49084;48.204;16.202;2022-11-02T06:19:44;22.63;;;11.38;;
62990;SDS011;49084;48.204;16.202;2022-11-02T06:22:10;24.20;;;12.65;;
62990;SDS011;49084;48.204;16.202;2022-11-02T06:24:35;16.38;;;10.77;;
62990;SDS011;49084;48.204;16.202;2022-11-02T06:27:01;18.17;;;11.60;;
62990;SDS011;49084;48.204;16.202;2022-11-02T06:29:26;23.30;;;11.57;;
62990;SDS011;49084;48.204;16.202;2022-11-02T06:31:52;25.77;;;11.23;;
62990;SDS011;49084;48.204;16.202;2022-11-02T06:34:18;21.15;;;12.43;;
62990;SDS011;49084;48.204;16.202;2022-11-02T06:36:43;21.88;;;11.55;;
62990;SDS011;49084;48.204;16.202;2022-11-02T06:39:09;30.45;;;12.95;;
62990;SDS011;49084;48.204;16.202;2022-11-02T06:41:35;23.23;;;12.32;;
62990;SDS011;49084;48.204;16.202;2022-11-02T06:44:00;20.67;;;10.65;;
62990;SDS011;49084;48.204;16.202;2022-11-02T06:46:26;22.20;;;11.35;;
62990;SDS011;49084;48.204;16.202;2022-11-02T06:48:51;21.83;;;11.60;;
62990;SDS011;49084;48.204;16.202;2022-11-02T06:51:17;18.67;;;10.68;;
62990;SDS011;49084;48.204;16.202;2022-11-02T06:53:43;24.20;;;11.23;;
62990;SDS011;49084;48.204;16.202;2022-11-02T06:56:09;20.50;;;10.77;;
62990;SDS011;49084;48.204;16.202;2022-11-02T06:58:36;16.55;;;9.35;;
62990;SDS011;49084;48.204;16.202;2022-11-02T07:01:03;16.90;;;8.70;;
62990;SDS011;49084;48.204;16.202;2022-11-02T07:03:31;16.85;;;8.88;;
62990;SDS011;49084;48.204;16.202;2022-11-02T07:05:57;14.35;;;8.35;;
62990;SDS011;49084;48.204;16.202;2022-11-02T07:08:23;23.80;;;9.38;;
62990;SDS011;49084;48.204;16.202;2022-11-02T07:10:49;13.95;;;7.57;;
62990;SDS011;49084;48.204;16.202;2022-11-02T07:13:15;13.77;;;7.45;;
62990;SDS011;49084;48.204;16.202;2022-11-02T07:15:41;11.43;;;6.32;;
62990;SDS011;49084;48.204;16.202;2022-11-02T07:18:07;11.23;;;6.07;;
62990;SDS011;49084;48.204;16.202;2022-11-02T07:20:32;18.50;;;6.68;;
62990;SDS011;49084;48.204;16.202;2022-11-02T07:22:59;11.18;;;6.32;;
62990;SDS011;49084;48.204;16.202;2022-11-02T07:25:27;10.20;;;6.70;;
62990;SDS011;49084;48.204;16.202;2022-11-02T07:27:57;14.32;;;6.70;;
62990;SDS011;49084;48.204;16.202;2022-11-02T07:30:25;14.77;;;6.35;;
62990;SDS011;49084;48.204;16.202;2022-11-02T07:32:52;10.43;;;6.93;;
62990;SDS011;49084;48.204;16.202;2022-11-02T07:35:17;13.00;;;6.40;;
62990;SDS011;49084;48.204;16.202;2022-11-02T07:37:43;13.18;;;6.97;;
62990;SDS011;49084;48.204;16.202;2022-11-02T07:40:18;11.95;;;7.22;;
62990;SDS011;49084;48.204;16.202;2022-11-02T07:42:44;13.98;;;7.25;;
62990;SDS011;49084;48.204;16.202;2022-11-02T07:45:10;14.35;;;7.25;;
62990;SDS011;49084;48.204;16.202;2022-11-02T07:47:43;13.43;;;6.97;;
62990;SDS011;49084;48.204;16.202;2022-11-02T07:50:09;18.77;;;6.50;;
62990;SDS011;49084;48.204;16.202;2022-11-02T07:52:42;12.85;;;6.88;;
62990;SDS011;49084;48.204;16.202;2022-11-02T07:55:12;12.30;;;6.93;;
62990;SDS011;49084;48.204;16.202;2022-11-02T07:57:38;9.82;;;6.20;;
62990;SDS011;49084;48.204;16.202;2022-11-02T08:00:04;9.18;;;5.57;;
62990;SDS011;49084;48.204;16.202;2022-11-02T08:02:30;9.02;;;5.82;;
62990;SDS011;49084;48.204;16.202;2022-11-02T08:04:56;11.32;;;5.45;;
62990;SDS011;49084;48.204;16.202;2022-11-02T08:07:22;14.30;;;5.57;;
62990;SDS011;49084;48.204;16.202;2022-11-02T08:09:47;11.73;;;4.53;;
62990;SDS011;49084;48.204;16.202;2022-11-02T08:12:13;9.27;;;4.53;;
62990;SDS011;49084;48.204;16.202;2022-11-02T08:14:39;12.77;;;4.88;;
62990;SDS011;49084;48.204;16.202;2022-11-02T08:17:04;13.00;;;4.38;;
62990;SDS011;49084;48.204;16.202;2022-11-02T08:19:30;8.02;;;3.55;;
62990;SDS011;49084;48.204;16.202;2022-11-02T08:21:55;9.65;;;4.05;;
62990;SDS011;49084;48.204;16.202;2022-11-02T08:24:22;6.57;;;3.20;;
62990;SDS011;49084;48.204;16.202;2022-11-02T08:26:48;10.13;;;3.45;;
62990;SDS011;49084;48.204;16.202;2022-11-02T08:29:13;11.50;;;3.40;;
62990;SDS011;49084;48.204;16.202;2022-11-02T08:31:39;6.68;;;3.58;;
62990;SDS011;49084;48.204;16.202;2022-11-02T08:34:05;8.25;;;3.30;;
62990;SDS011;49084;48.204;16.202;2022-11-02T08:36:30;7.85;;;2.75;;
62990;SDS011;49084;48.204;16.202;2022-11-02T08:38:58;9.83;;;3.47;;
62990;SDS011;49084;48.204;16.202;2022-11-02T08:41:24;10.48;;;3.42;;
62990;SDS011;49084;48.204;16.202;2022-11-02T08:43:50;10.32;;;2.95;;
62990;SDS011;49084;48.204;16.202;2022-11-02T08:46:15;10.52;;;3.38;;
62990;SDS011;49084;48.204;16.202;2022-11-02T08:48:41;7.45;;;3.25;;
62990;SDS011;49084;48.204;16.202;2022-11-02T08:51:07;5.60;;;2.97;;
62990;SDS011;49084;48.204;16.202;2022-11-02T08:53:33;7.53;;;2.92;;
62990;SDS011;49084;48.204;16.202;2022-11-02T08:55:58;9.95;;;3.08;;
62990;SDS011;49084;48.204;16.202;2022-11-02T08:58:24;5.00;;;2.63;;
62990;SDS011;49084;48.204;16.202;2022-11-02T09:00:53;5.28;;;2.63;;
62990;SDS011;49084;48.204;16.202;2022-11-02T09:03:19;6.78;;;2.00;;
62990;SDS011;49084;48.204;16.202;2022-11-02T09:05:47;7.53;;;2.40;;
62990;SDS011;49084;48.204;16.202;2022-11-02T09:08:14;7.40;;;2.22;;
62990;SDS011;49084;48.204;16.202;2022-11-02T09:10:41;6.95;;;2.35;;
62990;SDS011;49084;48.204;16.202;2022-11-02T09:13:08;6.55;;;2.85;;
62990;SDS011;49084;48.204;16.202;2022-11-02T09:15:36;6.78;;;2.35;;
62990;SDS011;49084;48.204;16.202;2022-11-02T09:18:03;7.07;;;2.35;;
62990;SDS011;49084;48.204;16.202;2022-11-02T09:20:29;7.90;;;2.70;;
62990;SDS011;49084;48.204;16.202;2022-11-02T09:22:55;7.72;;;2.90;;
62990;SDS011;49084;48.204;16.202;2022-11-02T09:25:20;11.35;;;2.30;;
62990;SDS011;49084;48.204;16.202;2022-11-02T09:27:50;3.15;;;2.30;;
62990;SDS011;49084;48.204;16.202;2022-11-02T09:30:20;10.18;;;3.13;;
62990;SDS011;49084;48.204;16.202;2022-11-02T09:32:56;7.53;;;2.78;;
62990;SDS011;49084;48.204;16.202;2022-11-02T09:35:23;6.05;;;2.22;;
62990;SDS011;49084;48.204;16.202;2022-11-02T09:37:50;5.95;;;1.95;;
62990;SDS011;49084;48.204;16.202;2022-11-02T09:40:19;5.10;;;2.80;;
62990;SDS011;49084;48.204;16.202;2022-11-02T09:42:58;4.15;;;2.22;;
62990;SDS011;49084;48.204;16.202;2022-11-02T09:45:25;7.13;;;2.22;;
62990;SDS011;49084;48.204;16.202;2022-11-02T09:47:56;6.75;;;2.10;;
62990;SDS011;49084;48.204;16.202;2022-11-02T09:50:33;6.55;;;1.90;;
62990;SDS011;49084;48.204;16.202;2022-11-02T09:53:18;3.78;;;1.90;;
62990;SDS011;49084;48.204;16.202;2022-11-02T09:55:53;5.38;;;2.08;;
62990;SDS011;49084;48.204;16.202;2022-11-02T09:58:27;4.50;;;2.05;;
62990;SDS011;49084;48.204;16.202;2022-11-02T10:07:11;6.68;;;2.30;;
62990;SDS011;49084;48.204;16.202;2022-11-02T10:15:27;5.18;;;2.22;;
62990;SDS011;49084;48.204;16.202;2022-11-02T10:23:21;6.15;;;2.50;;
62990;SDS011;49084;48.204;16.202;2022-11-02T10:25:57;7.63;;;2.28;;
62990;SDS011;49084;48.204;16.202;2022-11-02T10:28:31;5.93;;;2.50;;
62990;SDS011;49084;48.204;16.202;2022-11-02T10:31:01;9.80;;;2.90;;
62990;SDS011;49084;48.204;16.202;2022-11-02T10:33:29;11.30;;;3.72;;
62990;SDS011;49084;48.204;16.202;2022-11-02T10:38:53;4.63;;;2.60;;
62990;SDS011;49084;48.204;16.202;2022-11-02T10:47:10;6.28;;;2.30;;
62990;SDS011;49084;48.204;16.202;2022-11-02T10:52:32;5.85;;;2.00;;
62990;SDS011;49084;48.204;16.202;2022-11-02T10:55:03;7.65;;;2.30;;
62990;SDS011;49084;48.204;16.202;2022-11-02T10:57:32;4.78;;;1.67;;
62990;SDS011;49084;48.204;16.202;2022-11-02T11:03:06;5.10;;;1.70;;
62990;SDS011;49084;48.204;16.202;2022-11-02T11:05:33;2.78;;;1.90;;
62990;SDS011;49084;48.204;16.202;2022-11-02T11:08:02;4.78;;;2.20;;
62990;SDS011;49084;48.204;16.202;2022-11-02T11:10:30;5.85;;;2.00;;
62990;SDS011;49084;48.204;16.202;2022-11-02T11:13:02;4.00;;;2.05;;
62990;SDS011;49084;48.204;16.202;2022-11-02T11:15:29;4.70;;;2.15;;
62990;SDS011;49084;48.204;16.202;2022-11-02T11:17:57;6.40;;;2.22;;
62990;SDS011;49084;48.204;16.202;2022-11-02T11:20:25;4.15;;;1.85;;
62990;SDS011;49084;48.204;16.202;2022-11-02T11:23:15;3.83;;;1.80;;
62990;SDS011;49084;48.204;16.202;2022-11-02T11:25:39;5.28;;;1.98;;
62990;SDS011;49084;48.204;16.202;2022-11-02T11:30:47;3.72;;;1.60;;
62990;SDS011;49084;48.204;16.202;2022-11-02T11:36:22;5.82;;;1.63;;
62990;SDS011;49084;48.204;16.202;2022-11-02T11:38:54;5.47;;;1.38;;
62990;SDS011;49084;48.204;16.202;2022-11-02T11:41:26;2.63;;;1.50;;
62990;SDS011;49084;48.204;16.202;2022-11-02T11:43:55;3.97;;;1.17;;
62990;SDS011;49084;48.204;16.202;2022-11-02T11:46:21;3.33;;;1.50;;
62990;SDS011;49084;48.204;16.202;2022-11-02T11:48:53;5.03;;;1.38;;
62990;SDS011;49084;48.204;16.202;2022-11-02T11:57:36;2.90;;;1.60;;
62990;SDS011;49084;48.204;16.202;2022-11-02T11:59:52;2.17;;;1.57;;
62990;SDS011;49084;48.204;16.202;2022-11-02T12:02:24;2.40;;;1.58;;
62990;SDS011;49084;48.204;16.202;2022-11-02T12:13:39;3.30;;;1.30;;
62990;SDS011;49084;48.204;16.202;2022-11-02T12:16:26;3.00;;;1.77;;
62990;SDS011;49084;48.204;16.202;2022-11-02T12:19:27;1.45;;;0.88;;
62990;SDS011;49084;48.204;16.202;2022-11-02T12:30:41;5.80;;;1.40;;
62990;SDS011;49084;48.204;16.202;2022-11-02T12:36:39;2.75;;;1.02;;
62990;SDS011;49084;48.204;16.202;2022-11-02T12:39:08;2.33;;;1.20;;
62990;SDS011;49084;48.204;16.202;2022-11-02T12:44:13;2.75;;;0.98;;
62990;SDS011;49084;48.204;16.202;2022-11-02T12:49:33;2.75;;;1.40;;
62990;SDS011;49084;48.204;16.202;2022-11-02T12:54:49;5.88;;;1.20;;
62990;SDS011;49084;48.204;16.202;2022-11-02T12:57:20;5.65;;;1.40;;
62990;SDS011;49084;48.204;16.202;2022-11-02T12:59:52;3.03;;;0.90;;
62990;SDS011;49084;48.204;16.202;2022-11-02T13:05:11;3.00;;;1.00;;
62990;SDS011;49084;48.204;16.202;2022-11-02T13:10:44;2.92;;;0.90;;
62990;SDS011;49084;48.204;16.202;2022-11-02T13:13:20;4.45;;;1.00;;
62990;SDS011;49084;48.204;16.202;2022-11-02T13:15:53;3.03;;;1.10;;
62990;SDS011;49084;48.204;16.202;2022-11-02T13:18:21;3.97;;;1.23;;
62990;SDS011;49084;48.204;16.202;2022-11-02T13:20:51;2.30;;;1.00;;
62990;SDS011;49084;48.204;16.202;2022-11-02T13:23:32;4.18;;;1.20;;
62990;SDS011;49084;48.204;16.202;2022-11-02T13:26:03;6.13;;;1.10;;
62990;SDS011;49084;48.204;16.202;2022-11-02T13:28:44;7.50;;;2.13;;
62990;SDS011;49084;48.204;16.202;2022-11-02T13:31:17;5.17;;;2.27;;
62990;SDS011;49084;48.204;16.202;2022-11-02T13:33:59;5.22;;;1.00;;
62990;SDS011;49084;48.204;16.202;2022-11-02T13:36:28;3.65;;;0.95;;
62990;SDS011;49084;48.204;16.202;2022-11-02T13:39:12;3.55;;;1.30;;
62990;SDS011;49084;48.204;16.202;2022-11-02T13:47:13;6.13;;;1.10;;
62990;SDS011;49084;48.204;16.202;2022-11-02T13:52:02;5.63;;;1.30;;
62990;SDS011;49084;48.204;16.202;2022-11-02T13:59:53;3.83;;;0.98;;
62990;SDS011;49084;48.204;16.202;2022-11-02T14:02:19;4.10;;;1.20;;
62990;SDS011;49084;48.204;16.202;2022-11-02T14:04:47;2.42;;;1.27;;
62990;SDS011;49084;48.204;16.202;2022-11-02T14:09:51;3.95;;;1.17;;
62990;SDS011;49084;48.204;16.202;2022-11-02T14:12:38;3.83;;;1.58;;
62990;SDS011;49084;48.204;16.202;2022-11-02T14:25:49;8.03;;;2.07;;
62990;SDS011;49084;48.204;16.202;2022-11-02T14:30:45;4.55;;;2.35;;
62990;SDS011;49084;48.204;16.202;2022-11-02T14:36:09;5.20;;;2.33;;
62990;SDS011;49084;48.204;16.202;2022-11-02T14:49:30;4.30;;;2.50;;
62990;SDS011;49084;48.204;16.202;2022-11-02T14:52:00;7.25;;;2.60;;
62990;SDS011;49084;48.204;16.202;2022-11-02T14:54:45;4.35;;;2.13;;
62990;SDS011;49084;48.204;16.202;2022-11-02T14:59:53;8.90;;;2.72;;
62990;SDS011;49084;48.204;16.202;2022-11-02T15:02:23;7.88;;;2.58;;
62990;SDS011;49084;48.204;16.202;2022-11-02T15:04:57;5.90;;;2.10;;
62990;SDS011;49084;48.204;16.202;2022-11-02T15:07:32;7.43;;;2.50;;
62990;SDS011;49084;48.204;16.202;2022-11-02T15:16:14;5.05;;;2.05;;
62990;SDS011;49084;48.204;16.202;2022-11-02T15:18:36;6.18;;;2.63;;
62990;SDS011;49084;48.204;16.202;2022-11-02T15:23:44;7.63;;;2.70;;
62990;SDS011;49084;48.204;16.202;2022-11-02T15:29:44;4.75;;;2.70;;
62990;SDS011;49084;48.204;16.202;2022-11-02T15:32:15;5.57;;;2.22;;
62990;SDS011;49084;48.204;16.202;2022-11-02T15:34:50;16.90;;;3.40;;
62990;SDS011;49084;48.204;16.202;2022-11-02T15:37:22;6.45;;;2.40;;
62990;SDS011;49084;48.204;16.202;2022-11-02T15:39:50;6.93;;;2.28;;
62990;SDS011;49084;48.204;16.202;2022-11-02T15:53:37;4.50;;;1.80;;
62990;SDS011;49084;48.204;16.202;2022-11-02T16:00:13;8.10;;;2.63;;
62990;SDS011;49084;48.204;16.202;2022-11-02T16:04:57;3.92;;;2.20;;
62990;SDS011;49084;48.204;16.202;2022-11-02T16:07:25;6.85;;;1.70;;
62990;SDS011;49084;48.204;16.202;2022-11-02T16:09:53;6.22;;;1.92;;
62990;SDS011;49084;48.204;16.202;2022-11-02T16:12:20;7.28;;;1.70;;
62990;SDS011;49084;48.204;16.202;2022-11-02T16:14:57;5.15;;;1.80;;
62990;SDS011;49084;48.204;16.202;2022-11-02T16:17:48;3.97;;;1.52;;
62990;SDS011;49084;48.204;16.202;2022-11-02T16:20:18;5.55;;;1.75;;
62990;SDS011;49084;48.204;16.202;2022-11-02T16:22:50;6.32;;;1.58;;
62990;SDS011;49084;48.204;16.202;2022-11-02T16:25:39;2.63;;;1.48;;
62990;SDS011;49084;48.204;16.202;2022-11-02T16:40:00;3.45;;;2.22;;
62990;SDS011;49084;48.204;16.202;2022-11-02T16:42:26;5.57;;;1.92;;
62990;SDS011;49084;48.204;16.202;2022-11-02T16:44:53;3.13;;;1.60;;
62990;SDS011;49084;48.204;16.202;2022-11-02T16:47:26;4.70;;;1.30;;
62990;SDS011;49084;48.204;16.202;2022-11-02T16:49:58;6.93;;;1.90;;
62990;SDS011;49084;48.204;16.202;2022-11-02T16:52:31;6.30;;;1.77;;
62990;SDS011;49084;48.204;16.202;2022-11-02T16:54:59;7.07;;;1.55;;
62990;SDS011;49084;48.204;16.202;2022-11-02T16:57:29;5.50;;;1.80;;
62990;SDS011;49084;48.204;16.202;2022-11-02T16:59:59;5.45;;;1.98;;
62990;SDS011;49084;48.204;16.202;2022-11-02T17:05:05;5.95;;;2.60;;
62990;SDS011;49084;48.204;16.202;2022-11-02T17:07:40;2.53;;;1.38;;
62990;SDS011;49084;48.204;16.202;2022-11-02T17:10:08;7.13;;;1.80;;
62990;SDS011;49084;48.204;16.202;2022-11-02T17:12:43;4.93;;;1.83;;
62990;SDS011;49084;48.204;16.202;2022-11-02T17:15:15;6.38;;;2.00;;
62990;SDS011;49084;48.204;16.202;2022-11-02T17:17:46;6.13;;;1.70;;
62990;SDS011;49084;48.204;16.202;2022-11-02T17:22:59;3.35;;;1.70;;
62990;SDS011;49084;48.204;16.202;2022-11-02T17:25:34;3.78;;;1.65;;
62990;SDS011;49084;48.204;16.202;2022-11-02T17:28:03;4.95;;;2.00;;
62990;SDS011;49084;48.204;16.202;2022-11-02T17:31:04;8.52;;;2.13;;
62990;SDS011;49084;48.204;16.202;2022-11-02T17:33:43;7.82;;;2.00;;
62990;SDS011;49084;48.204;16.202;2022-11-02T17:36:10;9.38;;;2.45;;
62990;SDS011;49084;48.204;16.202;2022-11-02T17:38:35;5.38;;;1.63;;
62990;SDS011;49084;48.204;16.202;2022-11-02T17:41:03;4.22;;;1.35;;
62990;SDS011;49084;48.204;16.202;2022-11-02T17:43:49;3.55;;;1.52;;
62990;SDS011;49084;48.204;16.202;2022-11-02T17:46:15;5.25;;;1.70;;
62990;SDS011;49084;48.204;16.202;2022-11-02T17:48:41;5.82;;;1.60;;
62990;SDS011;49084;48.204;16.202;2022-11-02T17:51:07;8.50;;;1.80;;
62990;SDS011;49084;48.204;16.202;2022-11-02T17:53:35;7.90;;;1.73;;
62990;SDS011;49084;48.204;16.202;2022-11-02T17:56:01;6.38;;;1.80;;
62990;SDS011;49084;48.204;16.202;2022-11-02T17:58:27;6.03;;;1.98;;
62990;SDS011;49084;48.204;16.202;2022-11-02T18:00:53;5.30;;;1.75;;
62990;SDS011;49084;48.204;16.202;2022-11-02T18:03:20;5.80;;;1.50;;
62990;SDS011;49084;48.204;16.202;2022-11-02T18:05:47;9.85;;;2.05;;